Milouin — FT9009 — position and weather

sailwx.info

Track history (hours):
 
Tides and Currents Weather Stations Pressure Air Temp Water Temp Dewpoint Dewpoint Depression Visibility Wind Speed Wind Dir Waves Ship Positions

Milouin

Last reported at 2015-Apr-16 11:33 UTC. Time now 2015-Apr-19 14:12 UTC.
Position N 47°17' W 002°01'.

Length 36 m; draft 2.5 m.

Type: Ship. MMSI: 227003190.

Date/timePositionNaut miles runAvg speedWind from/ knotsBaromVisibWave heightAir tempDewpointWater temp
2015-Apr-16 11:33N 47°17' W 002°01'0 0.0
2015-Apr-16 10:29N 47°17' W 002°01'0 0.0
2015-Apr-16 09:30N 47°17' W 002°01'1 1.4
2015-Apr-16 08:32N 47°18' W 002°03'3 2.8
2015-Apr-16 07:34N 47°18' W 002°07'1 1.2
2015-Apr-16 06:33N 47°18' W 002°09'0 0.1
2015-Apr-16 05:33N 47°18' W 002°09'5 5.2
2015-Apr-16 04:33N 47°17' W 002°01'0 0.0
2015-Apr-16 03:14N 47°17' W 002°01'0 0.0
2015-Apr-16 02:16N 47°17' W 002°01'0 0.0
2015-Apr-16 00:33N 47°17' W 002°01'0 0.0
2015-Apr-15 23:28N 47°17' W 002°01'0 0.0
2015-Apr-15 22:16N 47°17' W 002°01'0 0.0
2015-Apr-15 20:33N 47°17' W 002°01'0 0.0
2015-Apr-15 19:33N 47°17' W 002°01'0 0.0
2015-Apr-15 18:31N 47°17' W 002°01'0 0.0
2015-Apr-15 17:33N 47°17' W 002°01'0 0.0
2015-Apr-15 08:23N 47°17' W 002°01'0 0.0
2015-Apr-15 07:33N 47°17' W 002°01'0 0.3
2015-Apr-15 06:33N 47°18' W 002°01'0 0.4
2015-Apr-15 05:33N 47°18' W 002°02'1 0.5
2015-Apr-15 04:32N 47°17' W 002°01'0 0.0
2015-Apr-15 03:28N 47°17' W 002°01'0 0.0
2015-Apr-15 01:29N 47°17' W 002°01'0 0.0
2015-Apr-15 00:33N 47°17' W 002°01'0 0.0
2015-Apr-14 23:16N 47°17' W 002°01'0 0.0
2015-Apr-14 22:30N 47°17' W 002°01'17 1.3
2015-Apr-14 09:33N 47°12' W 001°37'0 0.1
2015-Apr-14 08:32N 47°12' W 001°37'1 0.9
2015-Apr-14 07:33N 47°12' W 001°38'5 2.5
2015-Apr-14 05:33N 47°12' W 001°46'0 0.0
2015-Apr-14 04:19N 47°12' W 001°46'0 0.0
2015-Apr-14 03:31N 47°12' W 001°46'0 0.0
2015-Apr-13 13:14N 47°12' W 001°46'0 0.0
2015-Apr-13 12:25N 47°12' W 001°46'0 0.0
2015-Apr-13 11:16N 47°12' W 001°46'0 0.0
2015-Apr-13 10:32N 47°12' W 001°46'4 3.2
2015-Apr-13 09:18N 47°15' W 001°51'4 5.5
2015-Apr-13 08:33N 47°17' W 001°56'4 3.5
2015-Apr-13 07:30N 47°17' W 002°01'0 0.0
2015-Apr-13 06:09N 47°17' W 002°01'0 0.0
2015-Apr-13 04:18N 47°17' W 002°01'0 0.0
2015-Apr-12 23:33N 47°17' W 002°01'0 0.0
2015-Apr-12 22:28N 47°17' W 002°01'0 0.0
2015-Apr-12 20:26N 47°17' W 002°01'4 0.6
2015-Apr-12 14:31N 47°18' W 002°06'0 0.1
2015-Apr-12 13:33N 47°18' W 002°06'0 0.1
2015-Apr-12 12:18N 47°18' W 002°06'0 0.0
2015-Apr-12 11:28N 47°18' W 002°06'3 3.5
2015-Apr-12 10:28N 47°17' W 002°01'0 0.0
2015-Apr-12 09:24N 47°17' W 002°01'0 0.0
2015-Apr-12 08:29N 47°17' W 002°01'0 0.0
2015-Apr-12 07:32N 47°17' W 002°01'0 0.0
2015-Apr-12 06:33N 47°17' W 002°01'0 0.0
2015-Apr-12 05:32N 47°17' W 002°01'0 0.0
2015-Apr-12 04:31N 47°17' W 002°01'0 0.0
2015-Apr-12 03:19N 47°17' W 002°01'0 0.0
2015-Apr-12 02:10N 47°17' W 002°01'0 0.0
2015-Apr-12 01:22N 47°17' W 002°01'4 0.1
2015-Apr-10 08:09N 47°18' W 002°08'0 0.1
2015-Apr-10 07:33N 47°18' W 002°08'0 0.2
2015-Apr-10 06:33N 47°18' W 002°07'2 1.9
2015-Apr-10 05:33N 47°18' W 002°04'2 2.2
2015-Apr-10 04:28N 47°17' W 002°01'0 0.0
2015-Apr-10 03:33N 47°17' W 002°01'0 0.0
2015-Apr-10 02:32N 47°17' W 002°01'0 0.0
2015-Apr-10 01:30N 47°17' W 002°01'0 0.0
2015-Apr-10 00:33N 47°17' W 002°01'0 0.0
2015-Apr-09 23:32N 47°17' W 002°01'0 0.0
2015-Apr-09 22:32N 47°17' W 002°01'6 0.1
2015-Apr-08 07:28N 47°18' W 002°09'1 0.6
2015-Apr-08 06:33N 47°17' W 002°10'3 2.8
2015-Apr-08 05:31N 47°18' W 002°06'3 3.4
2015-Apr-08 04:33N 47°17' W 002°01'  
Track history (hours):
 
Tides and Currents Weather Stations Pressure Air Temp Water Temp Dewpoint Dewpoint Depression Visibility Wind Speed Wind Dir Waves Ship Positions

Milouin

Last reported at 2015-Apr-16 11:33 UTC. Time now 2015-Apr-19 14:13 UTC.
Position N 47°17' W 002°01'.

Length 36 m; draft 2.5 m.

Type: Ship. MMSI: 227003190.

Date/timePositionNaut miles runAvg speedWind from/ knotsBaromVisibWave heightAir tempDewpointWater temp
2015-Apr-16 11:33N 47°17' W 002°01'0 0.0
2015-Apr-16 10:29N 47°17' W 002°01'0 0.0
2015-Apr-16 09:30N 47°17' W 002°01'1 1.4
2015-Apr-16 08:32N 47°18' W 002°03'3 2.8
2015-Apr-16 07:34N 47°18' W 002°07'1 1.2
2015-Apr-16 06:33N 47°18' W 002°09'0 0.1
2015-Apr-16 05:33N 47°18' W 002°09'5 5.2
2015-Apr-16 04:33N 47°17' W 002°01'0 0.0
2015-Apr-16 03:14N 47°17' W 002°01'0 0.0
2015-Apr-16 02:16N 47°17' W 002°01'0 0.0
2015-Apr-16 00:33N 47°17' W 002°01'0 0.0
2015-Apr-15 23:28N 47°17' W 002°01'0 0.0
2015-Apr-15 22:16N 47°17' W 002°01'0 0.0
2015-Apr-15 20:33N 47°17' W 002°01'0 0.0
2015-Apr-15 19:33N 47°17' W 002°01'0 0.0
2015-Apr-15 18:31N 47°17' W 002°01'0 0.0
2015-Apr-15 17:33N 47°17' W 002°01'0 0.0
2015-Apr-15 08:23N 47°17' W 002°01'0 0.0
2015-Apr-15 07:33N 47°17' W 002°01'0 0.3
2015-Apr-15 06:33N 47°18' W 002°01'0 0.4
2015-Apr-15 05:33N 47°18' W 002°02'1 0.5
2015-Apr-15 04:32N 47°17' W 002°01'0 0.0
2015-Apr-15 03:28N 47°17' W 002°01'0 0.0
2015-Apr-15 01:29N 47°17' W 002°01'0 0.0
2015-Apr-15 00:33N 47°17' W 002°01'0 0.0
2015-Apr-14 23:16N 47°17' W 002°01'0 0.0
2015-Apr-14 22:30N 47°17' W 002°01'17 1.3
2015-Apr-14 09:33N 47°12' W 001°37'0 0.1
2015-Apr-14 08:32N 47°12' W 001°37'1 0.9
2015-Apr-14 07:33N 47°12' W 001°38'5 2.5
2015-Apr-14 05:33N 47°12' W 001°46'0 0.0
2015-Apr-14 04:19N 47°12' W 001°46'0 0.0
2015-Apr-14 03:31N 47°12' W 001°46'0 0.0
2015-Apr-13 13:14N 47°12' W 001°46'0 0.0
2015-Apr-13 12:25N 47°12' W 001°46'0 0.0
2015-Apr-13 11:16N 47°12' W 001°46'0 0.0
2015-Apr-13 10:32N 47°12' W 001°46'4 3.2
2015-Apr-13 09:18N 47°15' W 001°51'4 5.5
2015-Apr-13 08:33N 47°17' W 001°56'4 3.5
2015-Apr-13 07:30N 47°17' W 002°01'0 0.0
2015-Apr-13 06:09N 47°17' W 002°01'0 0.0
2015-Apr-13 04:18N 47°17' W 002°01'0 0.0
2015-Apr-12 23:33N 47°17' W 002°01'0 0.0
2015-Apr-12 22:28N 47°17' W 002°01'0 0.0
2015-Apr-12 20:26N 47°17' W 002°01'4 0.6
2015-Apr-12 14:31N 47°18' W 002°06'0 0.1
2015-Apr-12 13:33N 47°18' W 002°06'0 0.1
2015-Apr-12 12:18N 47°18' W 002°06'0 0.0
2015-Apr-12 11:28N 47°18' W 002°06'3 3.5
2015-Apr-12 10:28N 47°17' W 002°01'0 0.0
2015-Apr-12 09:24N 47°17' W 002°01'0 0.0
2015-Apr-12 08:29N 47°17' W 002°01'0 0.0
2015-Apr-12 07:32N 47°17' W 002°01'0 0.0
2015-Apr-12 06:33N 47°17' W 002°01'0 0.0
2015-Apr-12 05:32N 47°17' W 002°01'0 0.0
2015-Apr-12 04:31N 47°17' W 002°01'0 0.0
2015-Apr-12 03:19N 47°17' W 002°01'0 0.0
2015-Apr-12 02:10N 47°17' W 002°01'0 0.0
2015-Apr-12 01:22N 47°17' W 002°01'4 0.1
2015-Apr-10 08:09N 47°18' W 002°08'0 0.1
2015-Apr-10 07:33N 47°18' W 002°08'0 0.2
2015-Apr-10 06:33N 47°18' W 002°07'2 1.9
2015-Apr-10 05:33N 47°18' W 002°04'2 2.2
2015-Apr-10 04:28N 47°17' W 002°01'0 0.0
2015-Apr-10 03:33N 47°17' W 002°01'0 0.0
2015-Apr-10 02:32N 47°17' W 002°01'0 0.0
2015-Apr-10 01:30N 47°17' W 002°01'0 0.0
2015-Apr-10 00:33N 47°17' W 002°01'0 0.0
2015-Apr-09 23:32N 47°17' W 002°01'0 0.0
2015-Apr-09 22:32N 47°17' W 002°01'6 0.1
2015-Apr-08 07:28N 47°18' W 002°09'1 0.6
2015-Apr-08 06:33N 47°17' W 002°10'3 2.8
2015-Apr-08 05:31N 47°18' W 002°06'3 3.4
2015-Apr-08 04:33N 47°17' W 002°01'  

Dump ship's entire track history